Ponca City, Oklahoma
Current Conditions -  °F | °C
As of 1:53 AM on Friday 24 Oct 2014 (Local Time) from KPNC Reporting Station
Clear Clear  
Wind Chill: 60°   Ceiling: Unl
Heat Index: 60°   Visibility: 10mi
Dew Point: 57°   Wind: 9mph
Humidity: 90%   Direction: 150°SSE
Pressure: 30.08"   Gusts: NA
Location:  36.7°N, 97.08°W
Report Text: KPNC 240653Z AUTO 15008KT 10SM CLR 16/14 A3008 RMK AO2 SLP179 T01560139
Loading
Personal Weather Stations






























Interactive Weather Map
Tropical Storm Tracking
New forecast layout! Learn more

10-Day Weather Forecast

Advertisements
Track Severe Weather on mobile